sensor_id;sensor_type;location;lat;lon;timestamp;P1;durP1;ratioP1;P2;durP2;ratioP2
76125;SDS011;65174;48.138;21.002;2024-03-25T00:01:37;4.43;;;1.00;;
76125;SDS011;65174;48.138;21.002;2024-03-25T00:04:38;1.70;;;1.00;;
76125;SDS011;65174;48.138;21.002;2024-03-25T00:07:39;1.30;;;1.00;;
76125;SDS011;65174;48.138;21.002;2024-03-25T00:10:40;1.33;;;1.00;;
76125;SDS011;65174;48.138;21.002;2024-03-25T00:13:41;1.70;;;0.90;;
76125;SDS011;65174;48.138;21.002;2024-03-25T00:16:42;0.73;;;0.60;;
76125;SDS011;65174;48.138;21.002;2024-03-25T00:19:43;2.45;;;1.00;;
76125;SDS011;65174;48.138;21.002;2024-03-25T00:22:50;1.90;;;0.90;;
76125;SDS011;65174;48.138;21.002;2024-03-25T00:25:53;2.23;;;1.10;;
76125;SDS011;65174;48.138;21.002;2024-03-25T00:28:54;1.35;;;0.82;;
76125;SDS011;65174;48.138;21.002;2024-03-25T00:31:55;1.80;;;1.23;;
76125;SDS011;65174;48.138;21.002;2024-03-25T00:34:56;1.90;;;0.88;;
76125;SDS011;65174;48.138;21.002;2024-03-25T00:37:57;1.80;;;1.17;;
76125;SDS011;65174;48.138;21.002;2024-03-25T00:40:59;2.20;;;1.02;;
76125;SDS011;65174;48.138;21.002;2024-03-25T00:44:00;2.17;;;1.20;;
76125;SDS011;65174;48.138;21.002;2024-03-25T00:47:01;2.17;;;0.90;;
76125;SDS011;65174;48.138;21.002;2024-03-25T00:50:02;1.95;;;1.23;;
76125;SDS011;65174;48.138;21.002;2024-03-25T00:53:03;1.15;;;0.90;;
76125;SDS011;65174;48.138;21.002;2024-03-25T00:56:04;1.50;;;0.90;;
76125;SDS011;65174;48.138;21.002;2024-03-25T00:59:05;2.00;;;1.13;;
76125;SDS011;65174;48.138;21.002;2024-03-25T01:02:06;1.70;;;1.00;;
76125;SDS011;65174;48.138;21.002;2024-03-25T01:05:09;2.97;;;1.30;;
76125;SDS011;65174;48.138;21.002;2024-03-25T01:08:10;4.10;;;1.00;;
76125;SDS011;65174;48.138;21.002;2024-03-25T01:11:12;3.90;;;1.30;;
76125;SDS011;65174;48.138;21.002;2024-03-25T01:14:13;1.57;;;1.17;;
76125;SDS011;65174;48.138;21.002;2024-03-25T01:17:14;1.35;;;1.20;;
76125;SDS011;65174;48.138;21.002;2024-03-25T01:20:15;4.57;;;1.60;;
76125;SDS011;65174;48.138;21.002;2024-03-25T01:23:16;3.70;;;1.43;;
76125;SDS011;65174;48.138;21.002;2024-03-25T01:26:16;1.23;;;1.00;;
76125;SDS011;65174;48.138;21.002;2024-03-25T01:29:17;1.45;;;1.20;;
76125;SDS011;65174;48.138;21.002;2024-03-25T01:32:19;2.03;;;1.03;;
76125;SDS011;65174;48.138;21.002;2024-03-25T01:35:20;1.90;;;1.27;;
76125;SDS011;65174;48.138;21.002;2024-03-25T01:38:21;3.03;;;1.30;;
76125;SDS011;65174;48.138;21.002;2024-03-25T01:41:22;3.08;;;1.58;;
76125;SDS011;65174;48.138;21.002;2024-03-25T01:44:24;3.17;;;1.53;;
76125;SDS011;65174;48.138;21.002;2024-03-25T01:47:25;2.17;;;1.40;;
76125;SDS011;65174;48.138;21.002;2024-03-25T01:50:26;2.53;;;1.55;;
76125;SDS011;65174;48.138;21.002;2024-03-25T01:53:27;3.00;;;1.33;;
76125;SDS011;65174;48.138;21.002;2024-03-25T01:56:31;2.55;;;1.20;;
76125;SDS011;65174;48.138;21.002;2024-03-25T01:59:33;1.83;;;1.30;;
76125;SDS011;65174;48.138;21.002;2024-03-25T02:02:34;1.80;;;1.47;;
76125;SDS011;65174;48.138;21.002;2024-03-25T02:05:53;3.08;;;1.17;;
76125;SDS011;65174;48.138;21.002;2024-03-25T02:08:57;2.33;;;1.30;;
76125;SDS011;65174;48.138;21.002;2024-03-25T02:11:59;2.65;;;1.13;;
76125;SDS011;65174;48.138;21.002;2024-03-25T02:15:01;1.53;;;1.10;;
76125;SDS011;65174;48.138;21.002;2024-03-25T02:18:03;0.60;;;0.50;;
76125;SDS011;65174;48.138;21.002;2024-03-25T02:21:04;0.70;;;0.55;;
76125;SDS011;65174;48.138;21.002;2024-03-25T02:24:07;1.58;;;1.00;;
76125;SDS011;65174;48.138;21.002;2024-03-25T02:27:10;3.50;;;1.23;;
76125;SDS011;65174;48.138;21.002;2024-03-25T02:30:15;1.17;;;0.80;;
76125;SDS011;65174;48.138;21.002;2024-03-25T02:33:17;1.70;;;1.10;;
76125;SDS011;65174;48.138;21.002;2024-03-25T02:36:18;1.23;;;0.60;;
76125;SDS011;65174;48.138;21.002;2024-03-25T02:39:19;0.80;;;0.70;;
76125;SDS011;65174;48.138;21.002;2024-03-25T02:42:20;0.93;;;0.80;;
76125;SDS011;65174;48.138;21.002;2024-03-25T02:45:21;1.23;;;0.95;;
76125;SDS011;65174;48.138;21.002;2024-03-25T02:48:22;1.50;;;0.90;;
76125;SDS011;65174;48.138;21.002;2024-03-25T02:51:23;1.95;;;1.00;;
76125;SDS011;65174;48.138;21.002;2024-03-25T02:54:24;4.20;;;1.40;;
76125;SDS011;65174;48.138;21.002;2024-03-25T02:57:25;1.17;;;1.02;;
76125;SDS011;65174;48.138;21.002;2024-03-25T03:00:26;2.00;;;1.20;;
76125;SDS011;65174;48.138;21.002;2024-03-25T03:03:27;1.15;;;1.02;;
76125;SDS011;65174;48.138;21.002;2024-03-25T03:06:28;1.45;;;1.00;;
76125;SDS011;65174;48.138;21.002;2024-03-25T03:09:29;1.33;;;0.93;;
76125;SDS011;65174;48.138;21.002;2024-03-25T03:12:30;2.47;;;1.48;;
76125;SDS011;65174;48.138;21.002;2024-03-25T03:15:31;1.92;;;1.15;;
76125;SDS011;65174;48.138;21.002;2024-03-25T03:18:32;3.07;;;1.40;;
76125;SDS011;65174;48.138;21.002;2024-03-25T03:21:33;1.63;;;1.15;;
76125;SDS011;65174;48.138;21.002;2024-03-25T03:24:34;3.00;;;1.13;;
76125;SDS011;65174;48.138;21.002;2024-03-25T03:27:35;2.53;;;1.38;;
76125;SDS011;65174;48.138;21.002;2024-03-25T03:30:35;2.13;;;1.47;;
76125;SDS011;65174;48.138;21.002;2024-03-25T03:33:36;1.33;;;1.23;;
76125;SDS011;65174;48.138;21.002;2024-03-25T03:36:37;1.05;;;0.93;;
76125;SDS011;65174;48.138;21.002;2024-03-25T03:39:38;1.77;;;1.03;;
76125;SDS011;65174;48.138;21.002;2024-03-25T03:42:39;2.20;;;1.55;;
76125;SDS011;65174;48.138;21.002;2024-03-25T03:45:40;3.00;;;1.38;;
76125;SDS011;65174;48.138;21.002;2024-03-25T03:48:41;1.93;;;1.33;;
76125;SDS011;65174;48.138;21.002;2024-03-25T03:51:42;3.03;;;1.40;;
76125;SDS011;65174;48.138;21.002;2024-03-25T03:54:43;2.95;;;1.45;;
76125;SDS011;65174;48.138;21.002;2024-03-25T03:57:44;2.07;;;1.30;;
76125;SDS011;65174;48.138;21.002;2024-03-25T04:00:44;3.25;;;1.75;;
76125;SDS011;65174;48.138;21.002;2024-03-25T04:03:45;3.38;;;1.10;;
76125;SDS011;65174;48.138;21.002;2024-03-25T04:06:46;1.93;;;1.60;;
76125;SDS011;65174;48.138;21.002;2024-03-25T04:09:47;2.35;;;1.30;;
76125;SDS011;65174;48.138;21.002;2024-03-25T04:12:48;2.38;;;1.65;;
76125;SDS011;65174;48.138;21.002;2024-03-25T04:15:49;1.45;;;1.25;;
76125;SDS011;65174;48.138;21.002;2024-03-25T04:18:51;3.28;;;1.75;;
76125;SDS011;65174;48.138;21.002;2024-03-25T04:21:52;0.80;;;0.80;;
76125;SDS011;65174;48.138;21.002;2024-03-25T04:24:54;1.90;;;1.25;;
76125;SDS011;65174;48.138;21.002;2024-03-25T04:27:54;1.58;;;1.45;;
76125;SDS011;65174;48.138;21.002;2024-03-25T04:30:55;1.80;;;1.20;;
76125;SDS011;65174;48.138;21.002;2024-03-25T04:33:56;1.13;;;0.90;;
76125;SDS011;65174;48.138;21.002;2024-03-25T04:36:57;3.35;;;1.65;;
76125;SDS011;65174;48.138;21.002;2024-03-25T04:39:58;1.17;;;1.08;;
76125;SDS011;65174;48.138;21.002;2024-03-25T04:42:59;1.70;;;1.17;;
76125;SDS011;65174;48.138;21.002;2024-03-25T04:46:01;2.72;;;2.22;;
76125;SDS011;65174;48.138;21.002;2024-03-25T04:49:01;2.00;;;1.42;;
76125;SDS011;65174;48.138;21.002;2024-03-25T04:52:02;1.50;;;1.10;;
76125;SDS011;65174;48.138;21.002;2024-03-25T04:55:04;1.57;;;0.97;;
76125;SDS011;65174;48.138;21.002;2024-03-25T04:58:05;1.13;;;0.82;;
76125;SDS011;65174;48.138;21.002;2024-03-25T05:01:06;1.20;;;1.10;;
76125;SDS011;65174;48.138;21.002;2024-03-25T05:04:06;1.47;;;1.30;;
76125;SDS011;65174;48.138;21.002;2024-03-25T05:07:10;2.47;;;1.70;;
76125;SDS011;65174;48.138;21.002;2024-03-25T05:10:12;3.33;;;1.52;;
76125;SDS011;65174;48.138;21.002;2024-03-25T05:13:13;1.77;;;1.48;;
76125;SDS011;65174;48.138;21.002;2024-03-25T05:16:13;2.40;;;1.20;;
76125;SDS011;65174;48.138;21.002;2024-03-25T05:19:14;2.53;;;1.20;;
76125;SDS011;65174;48.138;21.002;2024-03-25T05:22:15;1.75;;;1.27;;
76125;SDS011;65174;48.138;21.002;2024-03-25T05:25:16;2.05;;;1.50;;
76125;SDS011;65174;48.138;21.002;2024-03-25T05:28:17;2.00;;;1.40;;
76125;SDS011;65174;48.138;21.002;2024-03-25T05:31:18;3.45;;;1.95;;
76125;SDS011;65174;48.138;21.002;2024-03-25T05:34:19;1.17;;;0.88;;
76125;SDS011;65174;48.138;21.002;2024-03-25T05:37:20;3.05;;;1.45;;
76125;SDS011;65174;48.138;21.002;2024-03-25T05:40:21;1.83;;;1.20;;
76125;SDS011;65174;48.138;21.002;2024-03-25T05:43:22;2.37;;;1.67;;
76125;SDS011;65174;48.138;21.002;2024-03-25T05:46:23;5.43;;;2.03;;
76125;SDS011;65174;48.138;21.002;2024-03-25T05:49:24;4.35;;;1.90;;
76125;SDS011;65174;48.138;21.002;2024-03-25T05:52:28;2.73;;;1.63;;
76125;SDS011;65174;48.138;21.002;2024-03-25T05:55:29;3.10;;;1.90;;
76125;SDS011;65174;48.138;21.002;2024-03-25T05:58:30;3.50;;;1.90;;
76125;SDS011;65174;48.138;21.002;2024-03-25T06:01:33;3.13;;;1.85;;
76125;SDS011;65174;48.138;21.002;2024-03-25T06:04:39;3.30;;;1.73;;
76125;SDS011;65174;48.138;21.002;2024-03-25T06:07:40;2.65;;;1.98;;
76125;SDS011;65174;48.138;21.002;2024-03-25T06:10:41;2.40;;;1.95;;
76125;SDS011;65174;48.138;21.002;2024-03-25T06:13:42;2.17;;;1.50;;
76125;SDS011;65174;48.138;21.002;2024-03-25T06:16:46;2.07;;;1.67;;
76125;SDS011;65174;48.138;21.002;2024-03-25T06:19:47;2.03;;;1.50;;
76125;SDS011;65174;48.138;21.002;2024-03-25T06:22:48;3.33;;;2.20;;
76125;SDS011;65174;48.138;21.002;2024-03-25T06:25:53;1.52;;;1.25;;
76125;SDS011;65174;48.138;21.002;2024-03-25T06:28:54;2.83;;;2.07;;
76125;SDS011;65174;48.138;21.002;2024-03-25T06:31:55;2.90;;;2.05;;
76125;SDS011;65174;48.138;21.002;2024-03-25T06:35:15;3.10;;;1.98;;
76125;SDS011;65174;48.138;21.002;2024-03-25T06:38:16;2.83;;;2.22;;
76125;SDS011;65174;48.138;21.002;2024-03-25T06:41:17;2.70;;;2.00;;
76125;SDS011;65174;48.138;21.002;2024-03-25T06:44:19;3.55;;;2.47;;
76125;SDS011;65174;48.138;21.002;2024-03-25T06:47:20;2.42;;;1.60;;
76125;SDS011;65174;48.138;21.002;2024-03-25T06:50:21;3.47;;;2.30;;
76125;SDS011;65174;48.138;21.002;2024-03-25T06:53:24;3.97;;;2.07;;
76125;SDS011;65174;48.138;21.002;2024-03-25T06:56:26;4.18;;;2.20;;
76125;SDS011;65174;48.138;21.002;2024-03-25T06:59:27;7.65;;;2.42;;
76125;SDS011;65174;48.138;21.002;2024-03-25T07:02:28;1.13;;;0.95;;
76125;SDS011;65174;48.138;21.002;2024-03-25T07:05:30;3.20;;;1.87;;
76125;SDS011;65174;48.138;21.002;2024-03-25T07:08:33;3.65;;;2.47;;
76125;SDS011;65174;48.138;21.002;2024-03-25T07:11:35;3.35;;;2.42;;
76125;SDS011;65174;48.138;21.002;2024-03-25T07:14:37;4.38;;;2.47;;
76125;SDS011;65174;48.138;21.002;2024-03-25T07:17:39;4.40;;;2.20;;
76125;SDS011;65174;48.138;21.002;2024-03-25T07:20:40;3.33;;;2.17;;
76125;SDS011;65174;48.138;21.002;2024-03-25T07:23:43;2.47;;;1.58;;
76125;SDS011;65174;48.138;21.002;2024-03-25T07:26:44;2.92;;;2.15;;
76125;SDS011;65174;48.138;21.002;2024-03-25T07:29:45;2.90;;;1.80;;
76125;SDS011;65174;48.138;21.002;2024-03-25T07:32:46;4.38;;;1.75;;
76125;SDS011;65174;48.138;21.002;2024-03-25T07:35:48;3.87;;;2.27;;
76125;SDS011;65174;48.138;21.002;2024-03-25T07:38:49;1.92;;;1.45;;
76125;SDS011;65174;48.138;21.002;2024-03-25T07:41:52;2.80;;;1.38;;
76125;SDS011;65174;48.138;21.002;2024-03-25T07:48:32;2.17;;;1.70;;
76125;SDS011;65174;48.138;21.002;2024-03-25T07:51:33;5.88;;;1.90;;
76125;SDS011;65174;48.138;21.002;2024-03-25T07:54:36;7.97;;;2.05;;
76125;SDS011;65174;48.138;21.002;2024-03-25T07:57:38;2.65;;;1.75;;
76125;SDS011;65174;48.138;21.002;2024-03-25T08:00:39;2.93;;;1.70;;
76125;SDS011;65174;48.138;21.002;2024-03-25T08:03:40;1.98;;;1.48;;
76125;SDS011;65174;48.138;21.002;2024-03-25T08:06:41;3.50;;;1.95;;
76125;SDS011;65174;48.138;21.002;2024-03-25T08:09:42;2.20;;;1.70;;
76125;SDS011;65174;48.138;21.002;2024-03-25T08:12:43;1.80;;;1.50;;
76125;SDS011;65174;48.138;21.002;2024-03-25T08:15:44;2.50;;;1.60;;
76125;SDS011;65174;48.138;21.002;2024-03-25T08:18:45;3.60;;;1.75;;
76125;SDS011;65174;48.138;21.002;2024-03-25T08:21:46;2.93;;;1.63;;
76125;SDS011;65174;48.138;21.002;2024-03-25T08:24:47;2.50;;;1.65;;
76125;SDS011;65174;48.138;21.002;2024-03-25T08:27:48;2.17;;;1.50;;
76125;SDS011;65174;48.138;21.002;2024-03-25T08:30:49;2.47;;;1.30;;
76125;SDS011;65174;48.138;21.002;2024-03-25T08:33:50;1.60;;;1.30;;
76125;SDS011;65174;48.138;21.002;2024-03-25T08:36:51;2.67;;;1.42;;
76125;SDS011;65174;48.138;21.002;2024-03-25T08:39:52;1.92;;;1.30;;
76125;SDS011;65174;48.138;21.002;2024-03-25T08:42:53;3.70;;;1.38;;
76125;SDS011;65174;48.138;21.002;2024-03-25T08:45:54;1.23;;;0.97;;
76125;SDS011;65174;48.138;21.002;2024-03-25T08:48:55;1.67;;;0.98;;
76125;SDS011;65174;48.138;21.002;2024-03-25T08:51:56;1.23;;;1.13;;
76125;SDS011;65174;48.138;21.002;2024-03-25T08:54:57;1.90;;;1.30;;
76125;SDS011;65174;48.138;21.002;2024-03-25T08:57:58;1.60;;;0.90;;
76125;SDS011;65174;48.138;21.002;2024-03-25T09:01:07;3.05;;;1.23;;
76125;SDS011;65174;48.138;21.002;2024-03-25T09:04:19;1.08;;;0.90;;
76125;SDS011;65174;48.138;21.002;2024-03-25T09:07:20;1.40;;;0.90;;
76125;SDS011;65174;48.138;21.002;2024-03-25T09:10:21;1.50;;;0.90;;
76125;SDS011;65174;48.138;21.002;2024-03-25T09:13:41;1.10;;;0.60;;
76125;SDS011;65174;48.138;21.002;2024-03-25T09:16:42;1.27;;;1.00;;
76125;SDS011;65174;48.138;21.002;2024-03-25T09:19:43;1.10;;;0.80;;
76125;SDS011;65174;48.138;21.002;2024-03-25T09:22:44;1.50;;;1.10;;
76125;SDS011;65174;48.138;21.002;2024-03-25T09:25:52;1.73;;;1.33;;
76125;SDS011;65174;48.138;21.002;2024-03-25T09:28:56;1.13;;;0.70;;
76125;SDS011;65174;48.138;21.002;2024-03-25T09:31:57;1.25;;;1.00;;
76125;SDS011;65174;48.138;21.002;2024-03-25T09:34:58;1.60;;;0.90;;
76125;SDS011;65174;48.138;21.002;2024-03-25T09:37:59;3.13;;;0.87;;
76125;SDS011;65174;48.138;21.002;2024-03-25T09:41:03;0.95;;;0.70;;
76125;SDS011;65174;48.138;21.002;2024-03-25T09:44:05;1.35;;;0.95;;
76125;SDS011;65174;48.138;21.002;2024-03-25T09:47:06;0.75;;;0.65;;
76125;SDS011;65174;48.138;21.002;2024-03-25T09:50:13;0.60;;;0.60;;
76125;SDS011;65174;48.138;21.002;2024-03-25T09:53:20;0.80;;;0.80;;
76125;SDS011;65174;48.138;21.002;2024-03-25T09:56:21;0.82;;;0.50;;
76125;SDS011;65174;48.138;21.002;2024-03-25T09:59:22;1.02;;;0.70;;
76125;SDS011;65174;48.138;21.002;2024-03-25T10:02:31;0.95;;;0.60;;
76125;SDS011;65174;48.138;21.002;2024-03-25T10:05:34;0.70;;;0.60;;
76125;SDS011;65174;48.138;21.002;2024-03-25T10:08:37;1.25;;;1.00;;
76125;SDS011;65174;48.138;21.002;2024-03-25T10:11:39;1.15;;;0.70;;
76125;SDS011;65174;48.138;21.002;2024-03-25T10:14:40;1.45;;;0.90;;
76125;SDS011;65174;48.138;21.002;2024-03-25T10:17:42;0.50;;;0.50;;
76125;SDS011;65174;48.138;21.002;2024-03-25T10:20:53;3.77;;;0.90;;
76125;SDS011;65174;48.138;21.002;2024-03-25T10:23:54;0.75;;;0.60;;
76125;SDS011;65174;48.138;21.002;2024-03-25T10:26:56;2.20;;;2.00;;
76125;SDS011;65174;48.138;21.002;2024-03-25T10:29:59;0.50;;;0.50;;
76125;SDS011;65174;48.138;21.002;2024-03-25T10:33:05;0.93;;;0.70;;
76125;SDS011;65174;48.138;21.002;2024-03-25T10:36:07;1.03;;;0.67;;
76125;SDS011;65174;48.138;21.002;2024-03-25T10:39:10;1.35;;;0.77;;
76125;SDS011;65174;48.138;21.002;2024-03-25T10:42:14;1.50;;;1.00;;
76125;SDS011;65174;48.138;21.002;2024-03-25T10:45:22;1.40;;;0.90;;
76125;SDS011;65174;48.138;21.002;2024-03-25T10:48:30;0.88;;;0.77;;
76125;SDS011;65174;48.138;21.002;2024-03-25T10:51:36;1.27;;;0.93;;
76125;SDS011;65174;48.138;21.002;2024-03-25T10:54:42;0.90;;;0.70;;
76125;SDS011;65174;48.138;21.002;2024-03-25T10:57:45;0.95;;;0.73;;
76125;SDS011;65174;48.138;21.002;2024-03-25T11:00:48;0.80;;;0.70;;
76125;SDS011;65174;48.138;21.002;2024-03-25T11:03:51;1.10;;;0.90;;
76125;SDS011;65174;48.138;21.002;2024-03-25T11:06:53;1.03;;;0.73;;
76125;SDS011;65174;48.138;21.002;2024-03-25T11:09:54;0.90;;;0.80;;
76125;SDS011;65174;48.138;21.002;2024-03-25T11:13:18;1.58;;;0.95;;
76125;SDS011;65174;48.138;21.002;2024-03-25T11:16:30;2.38;;;0.70;;
76125;SDS011;65174;48.138;21.002;2024-03-25T11:19:32;2.13;;;0.93;;
76125;SDS011;65174;48.138;21.002;2024-03-25T11:22:33;0.97;;;0.73;;
76125;SDS011;65174;48.138;21.002;2024-03-25T11:25:35;5.47;;;0.90;;
76125;SDS011;65174;48.138;21.002;2024-03-25T11:28:36;1.00;;;0.80;;
76125;SDS011;65174;48.138;21.002;2024-03-25T11:31:38;0.70;;;0.60;;
76125;SDS011;65174;48.138;21.002;2024-03-25T11:34:49;1.02;;;0.55;;
76125;SDS011;65174;48.138;21.002;2024-03-25T11:37:51;0.80;;;0.80;;
76125;SDS011;65174;48.138;21.002;2024-03-25T11:40:53;0.82;;;0.60;;
76125;SDS011;65174;48.138;21.002;2024-03-25T11:43:55;1.17;;;0.90;;
76125;SDS011;65174;48.138;21.002;2024-03-25T11:46:56;0.60;;;0.50;;
76125;SDS011;65174;48.138;21.002;2024-03-25T11:49:57;1.93;;;0.70;;
76125;SDS011;65174;48.138;21.002;2024-03-25T11:52:58;1.57;;;0.73;;
76125;SDS011;65174;48.138;21.002;2024-03-25T11:55:59;0.70;;;0.70;;
76125;SDS011;65174;48.138;21.002;2024-03-25T11:59:00;0.80;;;0.57;;
76125;SDS011;65174;48.138;21.002;2024-03-25T12:02:02;0.68;;;0.57;;
76125;SDS011;65174;48.138;21.002;2024-03-25T12:05:07;0.70;;;0.70;;
76125;SDS011;65174;48.138;21.002;2024-03-25T12:08:08;1.02;;;0.85;;
76125;SDS011;65174;48.138;21.002;2024-03-25T12:11:14;0.90;;;0.73;;
76125;SDS011;65174;48.138;21.002;2024-03-25T12:14:18;0.73;;;0.60;;
76125;SDS011;65174;48.138;21.002;2024-03-25T12:17:24;0.98;;;0.80;;
76125;SDS011;65174;48.138;21.002;2024-03-25T12:20:30;1.27;;;0.87;;
76125;SDS011;65174;48.138;21.002;2024-03-25T12:23:31;0.80;;;0.75;;
76125;SDS011;65174;48.138;21.002;2024-03-25T12:26:35;0.80;;;0.60;;
76125;SDS011;65174;48.138;21.002;2024-03-25T12:29:37;0.93;;;0.55;;
76125;SDS011;65174;48.138;21.002;2024-03-25T12:32:39;1.38;;;0.70;;
76125;SDS011;65174;48.138;21.002;2024-03-25T12:35:48;3.80;;;0.70;;
76125;SDS011;65174;48.138;21.002;2024-03-25T12:38:56;0.77;;;0.70;;
76125;SDS011;65174;48.138;21.002;2024-03-25T12:41:58;2.00;;;0.60;;
76125;SDS011;65174;48.138;21.002;2024-03-25T12:44:59;0.60;;;0.50;;
76125;SDS011;65174;48.138;21.002;2024-03-25T12:48:00;2.10;;;1.03;;
76125;SDS011;65174;48.138;21.002;2024-03-25T12:51:01;0.83;;;0.40;;
76125;SDS011;65174;48.138;21.002;2024-03-25T12:54:03;1.25;;;0.85;;
76125;SDS011;65174;48.138;21.002;2024-03-25T12:57:04;1.42;;;0.70;;
76125;SDS011;65174;48.138;21.002;2024-03-25T13:00:05;0.65;;;0.55;;
76125;SDS011;65174;48.138;21.002;2024-03-25T13:03:09;0.80;;;0.60;;
76125;SDS011;65174;48.138;21.002;2024-03-25T13:06:10;1.65;;;0.80;;
76125;SDS011;65174;48.138;21.002;2024-03-25T13:09:11;1.02;;;0.50;;
76125;SDS011;65174;48.138;21.002;2024-03-25T13:12:12;0.77;;;0.57;;
76125;SDS011;65174;48.138;21.002;2024-03-25T13:15:14;14.55;;;1.75;;
76125;SDS011;65174;48.138;21.002;2024-03-25T13:18:15;0.53;;;0.47;;
76125;SDS011;65174;48.138;21.002;2024-03-25T13:21:16;1.95;;;0.80;;
76125;SDS011;65174;48.138;21.002;2024-03-25T13:24:18;1.02;;;0.70;;
76125;SDS011;65174;48.138;21.002;2024-03-25T13:27:19;0.90;;;0.63;;
76125;SDS011;65174;48.138;21.002;2024-03-25T13:30:21;0.93;;;0.60;;
76125;SDS011;65174;48.138;21.002;2024-03-25T13:33:25;0.90;;;0.70;;
76125;SDS011;65174;48.138;21.002;2024-03-25T13:36:26;1.25;;;0.80;;
76125;SDS011;65174;48.138;21.002;2024-03-25T13:39:27;0.82;;;0.70;;
76125;SDS011;65174;48.138;21.002;2024-03-25T13:42:28;2.97;;;0.90;;
76125;SDS011;65174;48.138;21.002;2024-03-25T13:45:28;2.05;;;0.52;;
76125;SDS011;65174;48.138;21.002;2024-03-25T13:48:29;1.00;;;0.70;;
76125;SDS011;65174;48.138;21.002;2024-03-25T13:51:30;1.37;;;0.80;;
76125;SDS011;65174;48.138;21.002;2024-03-25T13:54:31;2.30;;;0.50;;
76125;SDS011;65174;48.138;21.002;2024-03-25T13:57:32;0.50;;;0.45;;
76125;SDS011;65174;48.138;21.002;2024-03-25T14:00:33;0.45;;;0.32;;
76125;SDS011;65174;48.138;21.002;2024-03-25T14:03:36;1.27;;;0.70;;
76125;SDS011;65174;48.138;21.002;2024-03-25T14:06:38;3.13;;;0.90;;
76125;SDS011;65174;48.138;21.002;2024-03-25T14:09:41;5.05;;;1.05;;
76125;SDS011;65174;48.138;21.002;2024-03-25T14:12:42;0.70;;;0.38;;
76125;SDS011;65174;48.138;21.002;2024-03-25T14:15:43;0.85;;;0.55;;
76125;SDS011;65174;48.138;21.002;2024-03-25T14:18:55;0.68;;;0.50;;
76125;SDS011;65174;48.138;21.002;2024-03-25T14:22:03;0.97;;;0.60;;
76125;SDS011;65174;48.138;21.002;2024-03-25T14:25:12;1.08;;;0.63;;
76125;SDS011;65174;48.138;21.002;2024-03-25T14:28:22;5.65;;;1.58;;
76125;SDS011;65174;48.138;21.002;2024-03-25T14:31:31;3.22;;;1.00;;
76125;SDS011;65174;48.138;21.002;2024-03-25T14:34:40;1.05;;;0.70;;
76125;SDS011;65174;48.138;21.002;2024-03-25T14:37:48;2.47;;;0.67;;
76125;SDS011;65174;48.138;21.002;2024-03-25T14:40:51;9.43;;;0.60;;
76125;SDS011;65174;48.138;21.002;2024-03-25T14:43:57;1.83;;;0.50;;
76125;SDS011;65174;48.138;21.002;2024-03-25T14:46:58;1.20;;;0.60;;
76125;SDS011;65174;48.138;21.002;2024-03-25T14:49:59;0.53;;;0.43;;
76125;SDS011;65174;48.138;21.002;2024-03-25T14:53:00;0.70;;;0.60;;
76125;SDS011;65174;48.138;21.002;2024-03-25T14:56:00;0.40;;;0.40;;
76125;SDS011;65174;48.138;21.002;2024-03-25T14:59:02;16.80;;;1.17;;
76125;SDS011;65174;48.138;21.002;2024-03-25T15:02:03;0.80;;;0.60;;
76125;SDS011;65174;48.138;21.002;2024-03-25T15:05:04;0.80;;;0.43;;
76125;SDS011;65174;48.138;21.002;2024-03-25T15:08:06;0.50;;;0.32;;
76125;SDS011;65174;48.138;21.002;2024-03-25T15:11:07;1.23;;;0.80;;
76125;SDS011;65174;48.138;21.002;2024-03-25T15:14:08;0.50;;;0.32;;
76125;SDS011;65174;48.138;21.002;2024-03-25T15:17:09;1.63;;;0.70;;
76125;SDS011;65174;48.138;21.002;2024-03-25T15:20:10;0.60;;;0.50;;
76125;SDS011;65174;48.138;21.002;2024-03-25T15:23:11;0.93;;;0.60;;
76125;SDS011;65174;48.138;21.002;2024-03-25T15:26:12;1.83;;;0.95;;
76125;SDS011;65174;48.138;21.002;2024-03-25T15:29:13;1.60;;;1.00;;
76125;SDS011;65174;48.138;21.002;2024-03-25T15:32:14;0.82;;;0.57;;
76125;SDS011;65174;48.138;21.002;2024-03-25T15:35:16;0.80;;;0.77;;
76125;SDS011;65174;48.138;21.002;2024-03-25T15:38:17;0.60;;;0.43;;
76125;SDS011;65174;48.138;21.002;2024-03-25T15:41:18;0.57;;;0.50;;
76125;SDS011;65174;48.138;21.002;2024-03-25T15:44:19;1.83;;;0.40;;
76125;SDS011;65174;48.138;21.002;2024-03-25T15:47:20;2.25;;;0.70;;
76125;SDS011;65174;48.138;21.002;2024-03-25T15:50:21;4.83;;;1.73;;
76125;SDS011;65174;48.138;21.002;2024-03-25T15:53:25;1.63;;;1.17;;
76125;SDS011;65174;48.138;21.002;2024-03-25T15:56:25;2.13;;;0.93;;
76125;SDS011;65174;48.138;21.002;2024-03-25T15:59:26;2.20;;;1.17;;
76125;SDS011;65174;48.138;21.002;2024-03-25T16:02:27;1.60;;;0.88;;
76125;SDS011;65174;48.138;21.002;2024-03-25T16:05:28;1.85;;;1.05;;
76125;SDS011;65174;48.138;21.002;2024-03-25T16:08:29;8.13;;;3.13;;
76125;SDS011;65174;48.138;21.002;2024-03-25T16:11:30;4.80;;;2.07;;
76125;SDS011;65174;48.138;21.002;2024-03-25T16:14:31;3.08;;;2.10;;
76125;SDS011;65174;48.138;21.002;2024-03-25T16:17:33;0.88;;;0.80;;
76125;SDS011;65174;48.138;21.002;2024-03-25T16:20:34;4.10;;;0.80;;
76125;SDS011;65174;48.138;21.002;2024-03-25T16:23:35;0.87;;;0.87;;
76125;SDS011;65174;48.138;21.002;2024-03-25T16:26:36;0.68;;;0.60;;
76125;SDS011;65174;48.138;21.002;2024-03-25T16:29:37;0.80;;;0.55;;
76125;SDS011;65174;48.138;21.002;2024-03-25T16:32:38;1.20;;;0.70;;
76125;SDS011;65174;48.138;21.002;2024-03-25T16:35:38;0.60;;;0.60;;
76125;SDS011;65174;48.138;21.002;2024-03-25T16:38:40;1.75;;;0.80;;
76125;SDS011;65174;48.138;21.002;2024-03-25T16:41:42;2.97;;;0.70;;
76125;SDS011;65174;48.138;21.002;2024-03-25T16:44:43;0.88;;;0.73;;
76125;SDS011;65174;48.138;21.002;2024-03-25T16:47:44;1.38;;;0.75;;
76125;SDS011;65174;48.138;21.002;2024-03-25T16:50:45;2.25;;;0.60;;
76125;SDS011;65174;48.138;21.002;2024-03-25T16:53:46;1.20;;;0.70;;
76125;SDS011;65174;48.138;21.002;2024-03-25T16:56:49;0.85;;;0.65;;
76125;SDS011;65174;48.138;21.002;2024-03-25T16:59:50;1.17;;;0.80;;
76125;SDS011;65174;48.138;21.002;2024-03-25T17:02:51;1.65;;;0.90;;
76125;SDS011;65174;48.138;21.002;2024-03-25T17:05:52;1.33;;;0.90;;
76125;SDS011;65174;48.138;21.002;2024-03-25T17:08:53;2.90;;;1.60;;
76125;SDS011;65174;48.138;21.002;2024-03-25T17:11:54;1.85;;;1.23;;
76125;SDS011;65174;48.138;21.002;2024-03-25T17:14:55;1.03;;;0.90;;
76125;SDS011;65174;48.138;21.002;2024-03-25T17:17:56;1.80;;;1.00;;
76125;SDS011;65174;48.138;21.002;2024-03-25T17:21:00;1.25;;;0.80;;
76125;SDS011;65174;48.138;21.002;2024-03-25T17:24:01;3.15;;;1.73;;
76125;SDS011;65174;48.138;21.002;2024-03-25T17:27:02;1.97;;;1.03;;
76125;SDS011;65174;48.138;21.002;2024-03-25T17:30:05;2.58;;;1.40;;
76125;SDS011;65174;48.138;21.002;2024-03-25T17:33:06;3.15;;;1.52;;
76125;SDS011;65174;48.138;21.002;2024-03-25T17:36:07;2.15;;;0.77;;
76125;SDS011;65174;48.138;21.002;2024-03-25T17:39:09;1.23;;;0.90;;
76125;SDS011;65174;48.138;21.002;2024-03-25T17:42:11;1.03;;;0.70;;
76125;SDS011;65174;48.138;21.002;2024-03-25T17:45:13;1.60;;;0.82;;
76125;SDS011;65174;48.138;21.002;2024-03-25T17:48:14;0.88;;;0.75;;
76125;SDS011;65174;48.138;21.002;2024-03-25T17:51:15;1.35;;;1.10;;
76125;SDS011;65174;48.138;21.002;2024-03-25T17:54:16;1.67;;;0.80;;
76125;SDS011;65174;48.138;21.002;2024-03-25T17:57:18;0.82;;;0.70;;
76125;SDS011;65174;48.138;21.002;2024-03-25T18:00:19;0.80;;;0.60;;
76125;SDS011;65174;48.138;21.002;2024-03-25T18:03:21;1.08;;;0.73;;